Terminal Aerodrome Forecast
Issued by NWS Quad Cities IA IL

Home | Current Version | Previous Version | Text Only | Print | Product List | Glossary On
Versions: 1 2 3 4 5 6 7 8 9 10 11 12 13 14 15 16 17 18 19 20 21 22 23 24 25
000
FTUS43 KDVN 010100 AAA
TAFMLI
TAF AMD
KMLI 010100Z 0101/0124 11007KT P6SM -SN OVC060
      TEMPO 0101/0102 4SM -SN BR OVC035
     FM010600 17006KT 5SM BR OVC022
     FM011300 21007KT P6SM BKN030
     FM011900 25011KT P6SM SCT080 BKN250=

USA.gov is the U.S. government's official web portal to all federal, state and local government web resources and services.